VCTRY47 KNTU-KNTU
Flight info
| Callsign | VCTRY47 |
|---|---|
| Flight time | 2h 44m |
| Altitude | 17000 |
| Route | CANOB KW36A HOBOH ZIBUT KW45A IMELL KW36A ZINEP ROWZO HUGEE HENIP WENID |
| Aircraft | F18/H-A/C |
Departure
| Time | 2026-04-25 21:35 |
|---|---|
| Airport | Oceana Naval Air Station (KNTU) |
Arrival
| Time | 2026-04-26 00:19 |
|---|---|
| Airport | Oceana Naval Air Station (KNTU) |
| Time | Latitude | Longitude | Altitude | Speed | Heading |
|---|---|---|---|---|---|
| 2026-04-25 21:27 | 36.81388 | -76.03442 | 30 ft | 0 kts | 45° |
| 2026-04-25 21:31 | 36.81400 | -76.03428 | 30 ft | 0 kts | 45° |
| 2026-04-25 21:31 | 36.81448 | -76.03469 | 30 ft | 18 kts | 311° |
| 2026-04-25 21:31 | 36.81519 | -76.03561 | 30 ft | 11 kts | 321° |
| 2026-04-25 21:32 | 36.81551 | -76.03599 | 30 ft | 0 kts | 313° |
| 2026-04-25 21:32 | 36.81572 | -76.03624 | 30 ft | 12 kts | 332° |
| 2026-04-25 21:32 | 36.81624 | -76.03602 | 30 ft | 10 kts | 42° |
| 2026-04-25 21:32 | 36.81698 | -76.03520 | 30 ft | 21 kts | 42° |
| 2026-04-25 21:33 | 36.81822 | -76.03377 | 30 ft | 28 kts | 40° |
| 2026-04-25 21:33 | 36.81976 | -76.03204 | 30 ft | 28 kts | 41° |
| 2026-04-25 21:33 | 36.82136 | -76.03017 | 30 ft | 34 kts | 41° |
| 2026-04-25 21:33 | 36.82292 | -76.02850 | 30 ft | 23 kts | 40° |
| 2026-04-25 21:34 | 36.82364 | -76.02772 | 30 ft | 6 kts | 41° |
| 2026-04-25 21:34 | 36.82373 | -76.02763 | 30 ft | 2 kts | 41° |
| 2026-04-25 21:34 | 36.82413 | -76.02691 | 30 ft | 15 kts | 125° |
| 2026-04-25 21:34 | 36.82041 | -76.02204 | 31 ft | 150 kts | 134° |
| 2026-04-25 21:35 | 36.81211 | -76.01164 | 717 ft | 190 kts | 144° |
| 2026-04-25 21:35 | 36.79680 | -76.00598 | 1745 ft | 263 kts | 173° |
| 2026-04-25 21:35 | 36.77908 | -76.00401 | 2906 ft | 254 kts | 174° |
| 2026-04-25 21:35 | 36.76134 | -76.00202 | 3961 ft | 265 kts | 175° |
| 2026-04-25 21:36 | 36.74307 | -75.99990 | 4765 ft | 267 kts | 176° |
| 2026-04-25 21:36 | 36.72434 | -75.99779 | 5567 ft | 272 kts | 176° |
| 2026-04-25 21:36 | 36.70548 | -75.99565 | 6391 ft | 276 kts | 177° |
| 2026-04-25 21:36 | 36.68613 | -75.99343 | 7221 ft | 282 kts | 177° |
| 2026-04-25 21:37 | 36.66651 | -75.99111 | 8062 ft | 284 kts | 176° |
| 2026-04-25 21:37 | 36.65345 | -75.98928 | 8620 ft | 288 kts | 176° |
| 2026-04-25 21:37 | 36.62642 | -75.98549 | 9777 ft | 298 kts | 176° |
| 2026-04-25 21:37 | 36.60578 | -75.98260 | 10655 ft | 312 kts | 176° |
| 2026-04-25 21:38 | 36.58188 | -75.97935 | 11662 ft | 365 kts | 175° |
| 2026-04-25 21:38 | 36.55733 | -75.97598 | 12683 ft | 360 kts | 175° |
| 2026-04-25 21:38 | 36.53220 | -75.97257 | 13730 ft | 368 kts | 175° |
| 2026-04-25 21:38 | 36.50635 | -75.96906 | 14808 ft | 380 kts | 175° |
| 2026-04-25 21:39 | 36.47988 | -75.96546 | 15914 ft | 385 kts | 175° |
| 2026-04-25 21:39 | 36.45301 | -75.96178 | 17003 ft | 394 kts | 175° |
| 2026-04-25 21:39 | 36.42519 | -75.95803 | 16738 ft | 397 kts | 175° |
| 2026-04-25 21:39 | 36.39781 | -75.95433 | 16815 ft | 399 kts | 175° |
| 2026-04-25 21:40 | 36.37013 | -75.95074 | 16843 ft | 398 kts | 175° |
| 2026-04-25 21:40 | 36.34258 | -75.94725 | 16808 ft | 399 kts | 175° |
| 2026-04-25 21:40 | 36.31497 | -75.94374 | 16820 ft | 400 kts | 175° |
| 2026-04-25 21:40 | 36.28729 | -75.94022 | 16824 ft | 400 kts | 175° |
| 2026-04-25 21:41 | 36.25961 | -75.93670 | 16818 ft | 399 kts | 175° |
| 2026-04-25 21:41 | 36.23195 | -75.93318 | 16820 ft | 400 kts | 175° |
| 2026-04-25 21:41 | 36.20428 | -75.92973 | 16819 ft | 399 kts | 175° |
| 2026-04-25 21:41 | 36.17680 | -75.92631 | 16821 ft | 398 kts | 175° |
| 2026-04-25 21:42 | 36.14922 | -75.92287 | 16819 ft | 397 kts | 175° |
| 2026-04-25 21:42 | 36.12169 | -75.91941 | 16823 ft | 399 kts | 175° |
| 2026-04-25 21:42 | 36.09440 | -75.91598 | 16819 ft | 400 kts | 175° |
| 2026-04-25 21:42 | 36.06677 | -75.91251 | 16820 ft | 399 kts | 175° |
| 2026-04-25 21:43 | 36.03915 | -75.90903 | 16822 ft | 399 kts | 175° |
| 2026-04-25 21:43 | 36.01151 | -75.90553 | 16820 ft | 399 kts | 175° |
| 2026-04-25 21:43 | 35.98387 | -75.90165 | 16820 ft | 400 kts | 172° |
| 2026-04-25 21:43 | 35.95645 | -75.89571 | 16822 ft | 400 kts | 171° |
| 2026-04-25 21:44 | 35.92905 | -75.88973 | 16817 ft | 400 kts | 171° |
| 2026-04-25 21:44 | 35.90163 | -75.88374 | 16821 ft | 400 kts | 171° |
| 2026-04-25 21:44 | 35.84683 | -75.87185 | 16818 ft | 400 kts | 172° |
| 2026-04-25 21:45 | 35.81942 | -75.86603 | 16820 ft | 400 kts | 172° |
| 2026-04-25 21:45 | 35.80121 | -75.86218 | 16822 ft | 400 kts | 172° |
| 2026-04-25 21:45 | 35.76458 | -75.85518 | 16819 ft | 400 kts | 173° |
| 2026-04-25 21:45 | 35.73710 | -75.85002 | 16821 ft | 400 kts | 173° |
| 2026-04-25 21:46 | 35.70958 | -75.84486 | 16820 ft | 400 kts | 173° |
| 2026-04-25 21:46 | 35.68208 | -75.83974 | 16820 ft | 400 kts | 173° |
| 2026-04-25 21:46 | 35.65458 | -75.83462 | 16820 ft | 400 kts | 173° |
| 2026-04-25 21:46 | 35.62705 | -75.82952 | 16817 ft | 400 kts | 173° |
| 2026-04-25 21:47 | 35.59938 | -75.82734 | 16815 ft | 398 kts | 187° |
| 2026-04-25 21:47 | 35.57344 | -75.83753 | 16840 ft | 394 kts | 214° |
| 2026-04-25 21:47 | 35.55461 | -75.86130 | 16820 ft | 391 kts | 242° |
| 2026-04-25 21:47 | 35.54709 | -75.89261 | 16816 ft | 391 kts | 269° |
| 2026-04-25 21:48 | 35.55234 | -75.92511 | 16822 ft | 393 kts | 296° |
| 2026-04-25 21:48 | 35.56961 | -75.95139 | 16819 ft | 397 kts | 323° |
| 2026-04-25 21:48 | 35.59442 | -75.96485 | 16818 ft | 398 kts | 350° |
| 2026-04-25 21:48 | 35.62242 | -75.96288 | 16820 ft | 406 kts | 17° |
| 2026-04-25 21:49 | 35.64654 | -75.94595 | 16818 ft | 409 kts | 44° |
| 2026-04-25 21:49 | 35.66257 | -75.91726 | 16816 ft | 411 kts | 68° |
| 2026-04-25 21:49 | 35.66879 | -75.88330 | 16815 ft | 409 kts | 89° |
| 2026-04-25 21:49 | 35.66467 | -75.84890 | 16822 ft | 410 kts | 111° |
| 2026-04-25 21:50 | 35.65080 | -75.81860 | 16820 ft | 407 kts | 132° |
| 2026-04-25 21:50 | 35.62918 | -75.79676 | 16821 ft | 404 kts | 154° |
| 2026-04-25 21:50 | 35.60274 | -75.78606 | 16821 ft | 400 kts | 175° |
| 2026-04-25 21:50 | 35.58405 | -75.78585 | 16827 ft | 398 kts | 187° |
| 2026-04-25 21:51 | 35.54766 | -75.79094 | 16803 ft | 398 kts | 181° |
| 2026-04-25 21:51 | 35.52047 | -75.78504 | 16834 ft | 402 kts | 161° |
| 2026-04-25 21:51 | 35.49447 | -75.77235 | 16818 ft | 401 kts | 159° |
| 2026-04-25 21:51 | 35.46858 | -75.75981 | 16798 ft | 400 kts | 166° |
| 2026-04-25 21:52 | 35.44111 | -75.75659 | 16837 ft | 397 kts | 188° |
| 2026-04-25 21:52 | 35.41480 | -75.76593 | 16821 ft | 394 kts | 210° |
| 2026-04-25 21:52 | 35.39363 | -75.78639 | 16818 ft | 389 kts | 231° |
| 2026-04-25 21:52 | 35.38043 | -75.81512 | 16821 ft | 390 kts | 253° |
| 2026-04-25 21:53 | 35.37709 | -75.84785 | 16819 ft | 388 kts | 275° |
| 2026-04-25 21:53 | 35.38419 | -75.87963 | 16822 ft | 391 kts | 297° |
| 2026-04-25 21:53 | 35.40077 | -75.90606 | 16821 ft | 395 kts | 318° |
| 2026-04-25 21:53 | 35.42432 | -75.92300 | 16819 ft | 398 kts | 340° |
| 2026-04-25 21:54 | 35.45178 | -75.92812 | 16819 ft | 404 kts | 1° |
| 2026-04-25 21:54 | 35.47973 | -75.92468 | 16817 ft | 402 kts | 6° |
| 2026-04-25 21:54 | 35.50752 | -75.92041 | 16814 ft | 404 kts | 6° |
| 2026-04-25 21:54 | 35.53541 | -75.91609 | 16821 ft | 404 kts | 6° |
| 2026-04-25 21:55 | 35.56331 | -75.91175 | 16820 ft | 404 kts | 6° |
| 2026-04-25 21:55 | 35.59124 | -75.90738 | 16819 ft | 404 kts | 6° |
| 2026-04-25 21:55 | 35.61914 | -75.90303 | 16820 ft | 404 kts | 6° |
| 2026-04-25 21:55 | 35.64702 | -75.89862 | 16823 ft | 405 kts | 6° |
| 2026-04-25 21:56 | 35.67491 | -75.89362 | 16819 ft | 405 kts | 7° |
| 2026-04-25 21:56 | 35.69340 | -75.89025 | 16820 ft | 405 kts | 7° |
| 2026-04-25 21:56 | 35.73065 | -75.88344 | 16820 ft | 405 kts | 7° |
| 2026-04-25 21:56 | 35.75844 | -75.87834 | 16820 ft | 405 kts | 7° |
| 2026-04-25 21:57 | 35.78591 | -75.87292 | 16820 ft | 405 kts | 8° |
| 2026-04-25 21:57 | 35.81399 | -75.86649 | 16820 ft | 405 kts | 10° |
| 2026-04-25 21:57 | 35.84121 | -75.85944 | 16821 ft | 405 kts | 11° |
| 2026-04-25 21:57 | 35.86875 | -75.85215 | 16824 ft | 405 kts | 12° |
| 2026-04-25 21:58 | 35.89652 | -75.84382 | 16819 ft | 405 kts | 13° |
| 2026-04-25 21:58 | 35.92374 | -75.83464 | 16820 ft | 406 kts | 15° |
| 2026-04-25 21:58 | 35.95011 | -75.82227 | 16809 ft | 407 kts | 31° |
| 2026-04-25 21:58 | 35.97047 | -75.79827 | 16835 ft | 410 kts | 58° |
| 2026-04-25 21:59 | 35.98016 | -75.76536 | 16821 ft | 411 kts | 85° |
| 2026-04-25 21:59 | 35.97689 | -75.73079 | 16817 ft | 409 kts | 112° |
| 2026-04-25 21:59 | 35.96141 | -75.70183 | 16822 ft | 406 kts | 140° |
| 2026-04-25 22:00 | 35.91920 | -75.68213 | 16822 ft | 397 kts | 185° |
| 2026-04-25 22:00 | 35.88563 | -75.69751 | 16820 ft | 393 kts | 221° |
| 2026-04-25 22:00 | 35.86629 | -75.72123 | 16809 ft | 391 kts | 227° |
| 2026-04-25 22:00 | 35.84800 | -75.74590 | 16804 ft | 390 kts | 233° |
| 2026-04-25 22:01 | 35.83117 | -75.77215 | 16823 ft | 391 kts | 226° |
| 2026-04-25 22:01 | 35.81135 | -75.79515 | 16819 ft | 392 kts | 223° |
| 2026-04-25 22:01 | 35.79012 | -75.81610 | 16818 ft | 391 kts | 215° |
| 2026-04-25 22:01 | 35.77476 | -75.82863 | 16826 ft | 393 kts | 214° |
| 2026-04-25 22:02 | 35.74449 | -75.85324 | 16817 ft | 394 kts | 214° |
| 2026-04-25 22:02 | 35.72174 | -75.87197 | 16820 ft | 393 kts | 215° |
| 2026-04-25 22:02 | 35.69910 | -75.89098 | 16821 ft | 393 kts | 216° |
| 2026-04-25 22:02 | 35.67665 | -75.91016 | 16820 ft | 393 kts | 216° |
| 2026-04-25 22:03 | 35.65430 | -75.92963 | 16820 ft | 393 kts | 217° |
| 2026-04-25 22:03 | 35.63219 | -75.94937 | 16820 ft | 393 kts | 217° |
| 2026-04-25 22:03 | 35.61024 | -75.96941 | 16820 ft | 393 kts | 218° |
| 2026-04-25 22:03 | 35.58735 | -75.98780 | 16817 ft | 394 kts | 207° |
| 2026-04-25 22:04 | 35.56153 | -75.99912 | 16825 ft | 396 kts | 194° |
| 2026-04-25 22:04 | 35.53415 | -76.00359 | 16820 ft | 398 kts | 183° |
| 2026-04-25 22:04 | 35.50647 | -76.00270 | 16818 ft | 399 kts | 176° |
| 2026-04-25 22:04 | 35.47902 | -75.99723 | 16815 ft | 401 kts | 165° |
| 2026-04-25 22:05 | 35.45319 | -75.98418 | 16824 ft | 404 kts | 152° |
| 2026-04-25 22:05 | 35.43001 | -75.96471 | 16819 ft | 406 kts | 142° |
| 2026-04-25 22:05 | 35.40936 | -75.94113 | 16819 ft | 406 kts | 135° |
| 2026-04-25 22:05 | 35.39120 | -75.91462 | 16813 ft | 408 kts | 122° |
| 2026-04-25 22:06 | 35.38069 | -75.88236 | 16828 ft | 411 kts | 101° |
| 2026-04-25 22:06 | 35.37949 | -75.84751 | 16821 ft | 412 kts | 82° |
| 2026-04-25 22:06 | 35.38761 | -75.81407 | 16817 ft | 411 kts | 63° |
| 2026-04-25 22:06 | 35.40409 | -75.78568 | 16816 ft | 410 kts | 43° |
| 2026-04-25 22:07 | 35.42675 | -75.76481 | 16817 ft | 407 kts | 27° |
| 2026-04-25 22:07 | 35.44352 | -75.75453 | 16822 ft | 408 kts | 24° |
| 2026-04-25 22:07 | 35.47945 | -75.74137 | 16835 ft | 404 kts | 5° |
| 2026-04-25 22:07 | 35.50749 | -75.73785 | 16817 ft | 404 kts | 4° |
| 2026-04-25 22:08 | 35.53543 | -75.73450 | 16814 ft | 404 kts | 4° |
| 2026-04-25 22:08 | 35.56342 | -75.73105 | 16824 ft | 404 kts | 4° |
| 2026-04-25 22:08 | 35.59141 | -75.72763 | 16820 ft | 404 kts | 4° |
| 2026-04-25 22:08 | 35.61939 | -75.72423 | 16819 ft | 404 kts | 4° |
| 2026-04-25 22:09 | 35.64731 | -75.72078 | 16821 ft | 404 kts | 5° |
| 2026-04-25 22:09 | 35.67529 | -75.71722 | 16821 ft | 404 kts | 4° |
| 2026-04-25 22:09 | 35.70256 | -75.71395 | 16819 ft | 404 kts | 4° |
| 2026-04-25 22:09 | 35.72814 | -75.72357 | 16174 ft | 434 kts | 298° |
| 2026-04-25 22:10 | 35.73819 | -75.75947 | 14948 ft | 446 kts | 286° |
| 2026-04-25 22:10 | 35.74553 | -75.79664 | 13721 ft | 451 kts | 278° |
| 2026-04-25 22:10 | 35.74996 | -75.83479 | 12395 ft | 461 kts | 276° |
| 2026-04-25 22:10 | 35.75154 | -75.87456 | 10954 ft | 470 kts | 268° |
| 2026-04-25 22:11 | 35.74650 | -75.91416 | 10137 ft | 458 kts | 249° |
| 2026-04-25 22:11 | 35.73200 | -75.94757 | 10373 ft | 433 kts | 232° |
| 2026-04-25 22:11 | 35.71028 | -75.97206 | 10265 ft | 419 kts | 211° |
| 2026-04-25 22:11 | 35.68362 | -75.98449 | 10269 ft | 406 kts | 190° |
| 2026-04-25 22:12 | 35.65594 | -75.98363 | 10291 ft | 396 kts | 168° |
| 2026-04-25 22:12 | 35.63115 | -75.97005 | 10283 ft | 389 kts | 145° |
| 2026-04-25 22:12 | 35.61294 | -75.94604 | 10275 ft | 384 kts | 122° |
| 2026-04-25 22:12 | 35.60882 | -75.93626 | 10278 ft | 382 kts | 114° |
| 2026-04-25 22:13 | 35.60414 | -75.89384 | 10281 ft | 376 kts | 82° |
| 2026-04-25 22:13 | 35.61297 | -75.86415 | 10277 ft | 370 kts | 57° |
| 2026-04-25 22:13 | 35.62843 | -75.83923 | 10290 ft | 365 kts | 51° |
| 2026-04-25 22:13 | 35.64142 | -75.81935 | 10267 ft | 363 kts | 51° |
| 2026-04-25 22:14 | 35.65039 | -75.80559 | 10271 ft | 362 kts | 51° |
| 2026-04-25 22:14 | 35.66601 | -75.78157 | 10279 ft | 358 kts | 51° |
| 2026-04-25 22:14 | 35.68149 | -75.75772 | 10283 ft | 355 kts | 51° |
| 2026-04-25 22:15 | 35.69675 | -75.73415 | 10279 ft | 351 kts | 51° |
| 2026-04-25 22:15 | 35.71190 | -75.71068 | 10279 ft | 348 kts | 51° |
| 2026-04-25 22:15 | 35.72691 | -75.68738 | 10281 ft | 346 kts | 51° |
| 2026-04-25 22:16 | 35.75658 | -75.64161 | 10279 ft | 343 kts | 51° |
| 2026-04-25 22:16 | 35.77144 | -75.61867 | 10280 ft | 342 kts | 51° |
| 2026-04-25 22:16 | 35.78627 | -75.59575 | 10280 ft | 341 kts | 51° |
| 2026-04-25 22:16 | 35.80103 | -75.57293 | 10280 ft | 341 kts | 51° |
| 2026-04-25 22:17 | 35.81577 | -75.55014 | 10280 ft | 340 kts | 51° |
| 2026-04-25 22:17 | 35.83049 | -75.52740 | 10279 ft | 339 kts | 49° |
| 2026-04-25 22:17 | 35.84898 | -75.50995 | 10276 ft | 334 kts | 21° |
| 2026-04-25 22:17 | 35.87123 | -75.50290 | 10303 ft | 330 kts | 9° |
| 2026-04-25 22:18 | 35.89377 | -75.49765 | 10268 ft | 330 kts | 9° |
| 2026-04-25 22:18 | 35.91633 | -75.49237 | 10273 ft | 330 kts | 9° |
| 2026-04-25 22:18 | 35.93887 | -75.48707 | 10287 ft | 329 kts | 9° |
| 2026-04-25 22:18 | 35.96133 | -75.48178 | 10280 ft | 329 kts | 9° |
| 2026-04-25 22:19 | 35.98386 | -75.47645 | 10278 ft | 329 kts | 9° |
| 2026-04-25 22:19 | 36.00629 | -75.47113 | 10281 ft | 329 kts | 9° |
| 2026-04-25 22:19 | 36.02877 | -75.46578 | 10281 ft | 329 kts | 9° |
| 2026-04-25 22:19 | 36.05120 | -75.46042 | 10279 ft | 329 kts | 9° |
| 2026-04-25 22:20 | 36.07371 | -75.45502 | 10280 ft | 328 kts | 9° |
| 2026-04-25 22:20 | 36.09612 | -75.44962 | 10280 ft | 328 kts | 9° |
| 2026-04-25 22:20 | 36.11855 | -75.44420 | 10280 ft | 327 kts | 9° |
| 2026-04-25 22:20 | 36.14051 | -75.43887 | 10280 ft | 326 kts | 9° |
| 2026-04-25 22:21 | 36.16291 | -75.43341 | 10280 ft | 326 kts | 9° |
| 2026-04-25 22:21 | 36.18509 | -75.42798 | 10280 ft | 325 kts | 9° |
| 2026-04-25 22:21 | 36.20733 | -75.42251 | 10280 ft | 325 kts | 9° |
| 2026-04-25 22:21 | 36.22956 | -75.41701 | 10280 ft | 325 kts | 9° |
| 2026-04-25 22:22 | 36.25146 | -75.41157 | 10279 ft | 325 kts | 9° |
| 2026-04-25 22:22 | 36.27402 | -75.40594 | 10280 ft | 326 kts | 9° |
| 2026-04-25 22:22 | 36.29603 | -75.40041 | 10280 ft | 327 kts | 9° |
| 2026-04-25 22:22 | 36.31838 | -75.39477 | 10280 ft | 328 kts | 9° |
| 2026-04-25 22:23 | 36.34078 | -75.38909 | 10280 ft | 328 kts | 9° |
| 2026-04-25 22:23 | 36.36317 | -75.38338 | 10279 ft | 329 kts | 9° |
| 2026-04-25 22:23 | 36.38559 | -75.37762 | 10282 ft | 329 kts | 10° |
| 2026-04-25 22:23 | 36.40807 | -75.37181 | 10280 ft | 330 kts | 10° |
| 2026-04-25 22:24 | 36.43053 | -75.36596 | 10279 ft | 330 kts | 10° |
| 2026-04-25 22:24 | 36.45305 | -75.36006 | 10280 ft | 331 kts | 10° |
| 2026-04-25 22:24 | 36.47562 | -75.35411 | 10281 ft | 331 kts | 10° |
| 2026-04-25 22:24 | 36.49824 | -75.34810 | 10280 ft | 332 kts | 10° |
| 2026-04-25 22:25 | 36.52055 | -75.34212 | 10280 ft | 332 kts | 10° |
| 2026-04-25 22:25 | 36.54314 | -75.33601 | 10280 ft | 332 kts | 10° |
| 2026-04-25 22:25 | 36.56578 | -75.32984 | 10280 ft | 333 kts | 10° |
| 2026-04-25 22:25 | 36.58839 | -75.32363 | 10280 ft | 333 kts | 10° |
| 2026-04-25 22:26 | 36.61107 | -75.31734 | 10280 ft | 333 kts | 10° |
| 2026-04-25 22:26 | 36.63370 | -75.31099 | 10280 ft | 334 kts | 11° |
| 2026-04-25 22:26 | 36.65632 | -75.30458 | 10280 ft | 334 kts | 11° |
| 2026-04-25 22:26 | 36.67905 | -75.29806 | 10280 ft | 334 kts | 11° |
| 2026-04-25 22:27 | 36.70193 | -75.29142 | 10282 ft | 346 kts | 11° |
| 2026-04-25 22:27 | 36.72637 | -75.28426 | 10277 ft | 366 kts | 11° |
| 2026-04-25 22:27 | 36.75096 | -75.27692 | 10280 ft | 367 kts | 12° |
| 2026-04-25 22:27 | 36.77577 | -75.26939 | 10282 ft | 367 kts | 12° |
| 2026-04-25 22:28 | 36.80057 | -75.26174 | 10279 ft | 367 kts | 12° |
| 2026-04-25 22:28 | 36.82536 | -75.25395 | 10280 ft | 367 kts | 12° |
| 2026-04-25 22:28 | 36.85011 | -75.24602 | 10280 ft | 367 kts | 12° |
| 2026-04-25 22:28 | 36.87484 | -75.23792 | 10280 ft | 367 kts | 13° |
| 2026-04-25 22:29 | 36.89952 | -75.22964 | 10280 ft | 367 kts | 13° |
| 2026-04-25 22:29 | 36.92373 | -75.22130 | 10280 ft | 367 kts | 13° |
| 2026-04-25 22:29 | 36.94875 | -75.21244 | 10280 ft | 367 kts | 14° |
| 2026-04-25 22:30 | 36.99775 | -75.19422 | 10280 ft | 367 kts | 15° |
| 2026-04-25 22:30 | 37.02217 | -75.18461 | 10280 ft | 368 kts | 16° |
| 2026-04-25 22:30 | 37.04643 | -75.17463 | 10280 ft | 367 kts | 17° |
| 2026-04-25 22:30 | 37.06249 | -75.16776 | 10280 ft | 368 kts | 17° |
| 2026-04-25 22:31 | 37.09471 | -75.15316 | 10280 ft | 369 kts | 19° |
| 2026-04-25 22:31 | 37.11858 | -75.14149 | 10280 ft | 368 kts | 20° |
| 2026-04-25 22:31 | 37.14216 | -75.12904 | 10280 ft | 368 kts | 22° |
| 2026-04-25 22:31 | 37.16553 | -75.11552 | 10280 ft | 370 kts | 24° |
| 2026-04-25 22:32 | 37.18841 | -75.10069 | 10280 ft | 370 kts | 27° |
| 2026-04-25 22:32 | 37.21055 | -75.08419 | 10280 ft | 371 kts | 31° |
| 2026-04-25 22:32 | 37.23134 | -75.06567 | 10280 ft | 372 kts | 37° |
| 2026-04-25 22:32 | 37.25058 | -75.04399 | 10279 ft | 373 kts | 45° |
| 2026-04-25 22:33 | 37.26683 | -75.01859 | 10279 ft | 374 kts | 57° |
| 2026-04-25 22:33 | 37.27849 | -74.98953 | 10280 ft | 374 kts | 70° |
| 2026-04-25 22:33 | 37.28478 | -74.95784 | 10283 ft | 374 kts | 82° |
| 2026-04-25 22:33 | 37.28649 | -74.92537 | 10281 ft | 373 kts | 91° |
| 2026-04-25 22:34 | 37.28527 | -74.89282 | 10279 ft | 373 kts | 96° |
| 2026-04-25 22:34 | 37.28244 | -74.86048 | 10280 ft | 372 kts | 98° |
| 2026-04-25 22:34 | 37.27878 | -74.82827 | 10280 ft | 372 kts | 100° |
| 2026-04-25 22:34 | 37.27470 | -74.79622 | 10280 ft | 372 kts | 101° |
| 2026-04-25 22:35 | 37.27038 | -74.76412 | 10280 ft | 372 kts | 101° |
| 2026-04-25 22:35 | 37.26596 | -74.73216 | 10280 ft | 372 kts | 101° |
| 2026-04-25 22:35 | 37.26148 | -74.70012 | 10280 ft | 372 kts | 101° |
| 2026-04-25 22:35 | 37.25697 | -74.66811 | 10280 ft | 372 kts | 101° |
| 2026-04-25 22:36 | 37.25244 | -74.63615 | 10199 ft | 373 kts | 101° |
| 2026-04-25 22:36 | 37.24792 | -74.60424 | 9418 ft | 369 kts | 101° |
| 2026-04-25 22:36 | 37.24348 | -74.57293 | 8639 ft | 361 kts | 102° |
| 2026-04-25 22:36 | 37.23907 | -74.54187 | 7856 ft | 358 kts | 102° |
| 2026-04-25 22:37 | 37.23475 | -74.51152 | 7087 ft | 349 kts | 102° |
| 2026-04-25 22:37 | 37.23048 | -74.48157 | 6326 ft | 348 kts | 102° |
| 2026-04-25 22:37 | 37.22626 | -74.45194 | 5823 ft | 341 kts | 102° |
| 2026-04-25 22:37 | 37.22208 | -74.42270 | 5902 ft | 342 kts | 103° |
| 2026-04-25 22:38 | 37.21787 | -74.39337 | 5849 ft | 340 kts | 102° |
| 2026-04-25 22:38 | 37.21368 | -74.36414 | 5848 ft | 341 kts | 102° |
| 2026-04-25 22:38 | 37.20949 | -74.33488 | 5868 ft | 340 kts | 102° |
| 2026-04-25 22:38 | 37.20535 | -74.30605 | 5861 ft | 340 kts | 102° |
| 2026-04-25 22:39 | 37.20102 | -74.27592 | 5862 ft | 376 kts | 102° |
| 2026-04-25 22:39 | 37.19611 | -74.24189 | 5854 ft | 400 kts | 102° |
| 2026-04-25 22:39 | 37.19133 | -74.20809 | 5863 ft | 398 kts | 102° |
| 2026-04-25 22:39 | 37.18651 | -74.17398 | 5861 ft | 398 kts | 102° |
| 2026-04-25 22:40 | 37.18169 | -74.13980 | 5859 ft | 398 kts | 102° |
| 2026-04-25 22:40 | 37.17686 | -74.10561 | 5860 ft | 398 kts | 102° |
| 2026-04-25 22:40 | 37.17204 | -74.07148 | 5860 ft | 398 kts | 102° |
| 2026-04-25 22:40 | 37.16721 | -74.03732 | 5860 ft | 398 kts | 102° |
| 2026-04-25 22:41 | 37.16240 | -74.00321 | 5860 ft | 398 kts | 102° |
| 2026-04-25 22:41 | 37.15758 | -73.96911 | 5860 ft | 398 kts | 102° |
| 2026-04-25 22:41 | 37.15275 | -73.93494 | 5860 ft | 398 kts | 102° |
| 2026-04-25 22:41 | 37.14793 | -73.90081 | 5860 ft | 398 kts | 102° |
| 2026-04-25 22:42 | 37.14311 | -73.86668 | 5860 ft | 398 kts | 102° |
| 2026-04-25 22:42 | 37.13829 | -73.83257 | 5860 ft | 397 kts | 102° |
| 2026-04-25 22:42 | 37.13347 | -73.79846 | 5860 ft | 397 kts | 102° |
| 2026-04-25 22:42 | 37.12865 | -73.76433 | 5860 ft | 398 kts | 102° |
| 2026-04-25 22:43 | 37.12383 | -73.73025 | 5860 ft | 398 kts | 102° |
| 2026-04-25 22:43 | 37.11901 | -73.69610 | 5860 ft | 398 kts | 102° |
| 2026-04-25 22:43 | 37.11419 | -73.66200 | 5860 ft | 398 kts | 102° |
| 2026-04-25 22:43 | 37.10937 | -73.62784 | 5609 ft | 396 kts | 101° |
| 2026-04-25 22:44 | 37.10518 | -73.59415 | 4709 ft | 385 kts | 99° |
| 2026-04-25 22:44 | 37.10138 | -73.56134 | 4673 ft | 378 kts | 103° |
| 2026-04-25 22:44 | 37.09618 | -73.52905 | 4634 ft | 378 kts | 103° |
| 2026-04-25 22:44 | 37.09121 | -73.49684 | 4280 ft | 372 kts | 102° |
| 2026-04-25 22:45 | 37.08655 | -73.46519 | 3828 ft | 368 kts | 102° |
| 2026-04-25 22:45 | 37.08205 | -73.43412 | 3384 ft | 357 kts | 102° |
| 2026-04-25 22:45 | 37.07766 | -73.40350 | 3441 ft | 357 kts | 102° |
| 2026-04-25 22:45 | 37.07326 | -73.37281 | 3411 ft | 358 kts | 102° |
| 2026-04-25 22:46 | 37.06886 | -73.34216 | 3415 ft | 358 kts | 102° |
| 2026-04-25 22:46 | 37.06446 | -73.31143 | 3425 ft | 358 kts | 101° |
| 2026-04-25 22:46 | 37.06007 | -73.28074 | 3419 ft | 358 kts | 101° |
| 2026-04-25 22:46 | 37.05601 | -73.25057 | 2746 ft | 339 kts | 99° |
| 2026-04-25 22:47 | 37.05317 | -73.22292 | 2300 ft | 302 kts | 98° |
| 2026-04-25 22:47 | 37.05196 | -73.19803 | 1859 ft | 272 kts | 94° |
| 2026-04-25 22:47 | 37.04944 | -73.17641 | 1465 ft | 217 kts | 108° |
| 2026-04-25 22:47 | 37.04581 | -73.16032 | 1359 ft | 172 kts | 103° |
| 2026-04-25 22:48 | 37.04341 | -73.14665 | 1025 ft | 134 kts | 99° |
| 2026-04-25 22:48 | 37.04163 | -73.13641 | 695 ft | 120 kts | 116° |
| 2026-04-25 22:48 | 37.03823 | -73.12714 | 547 ft | 115 kts | 115° |
| 2026-04-25 22:48 | 37.03516 | -73.11804 | 632 ft | 117 kts | 112° |
| 2026-04-25 22:49 | 37.03322 | -73.10819 | 416 ft | 117 kts | 103° |
| 2026-04-25 22:49 | 37.03152 | -73.09831 | 288 ft | 116 kts | 105° |
| 2026-04-25 22:49 | 37.02924 | -73.08867 | 180 ft | 116 kts | 105° |
| 2026-04-25 22:49 | 37.02730 | -73.07982 | 73 ft | 35 kts | 102° |
| 2026-04-25 22:50 | 37.02646 | -73.07694 | 73 ft | 39 kts | 104° |
| 2026-04-25 22:50 | 37.02552 | -73.07387 | 73 ft | 42 kts | 130° |
| 2026-04-25 22:50 | 37.02457 | -73.07087 | 73 ft | 35 kts | 114° |
| 2026-04-25 22:50 | 37.02373 | -73.06801 | 73 ft | 35 kts | 114° |
| 2026-04-25 22:51 | 37.02290 | -73.06515 | 73 ft | 35 kts | 114° |
| 2026-04-25 22:51 | 37.02207 | -73.06229 | 73 ft | 35 kts | 114° |
| 2026-04-25 22:51 | 37.02124 | -73.05943 | 73 ft | 35 kts | 114° |
| 2026-04-25 22:51 | 37.02040 | -73.05657 | 73 ft | 35 kts | 114° |
| 2026-04-25 22:52 | 37.01957 | -73.05371 | 73 ft | 35 kts | 114° |
| 2026-04-25 22:52 | 37.01874 | -73.05085 | 73 ft | 35 kts | 114° |
| 2026-04-25 22:52 | 37.01791 | -73.04799 | 73 ft | 35 kts | 114° |
| 2026-04-25 22:52 | 37.01734 | -73.04605 | 73 ft | 35 kts | 114° |
| 2026-04-25 22:53 | 37.01624 | -73.04227 | 73 ft | 35 kts | 114° |
| 2026-04-25 22:53 | 37.01541 | -73.03941 | 73 ft | 35 kts | 114° |
| 2026-04-25 22:53 | 37.01425 | -73.03547 | 74 ft | 252 kts | 112° |
| 2026-04-25 22:53 | 37.00820 | -73.01418 | 66 ft | 258 kts | 109° |
| 2026-04-25 22:54 | 37.00622 | -73.00668 | 0 ft | 250 kts | 0° |
| 2026-04-25 22:54 | 36.97698 | -72.98039 | 6772 ft | 360 kts | 267° |
| 2026-04-25 22:54 | 36.97488 | -73.01354 | 6121 ft | 406 kts | 259° |
| 2026-04-25 22:54 | 36.96736 | -73.04951 | 5187 ft | 449 kts | 248° |
| 2026-04-25 22:55 | 36.95205 | -73.08557 | 3545 ft | 492 kts | 233° |
| 2026-04-25 22:55 | 36.92829 | -73.11844 | 709 ft | 527 kts | 218° |
| 2026-04-25 22:55 | 36.91519 | -73.13193 | 688 ft | 173 kts | 205° |
| 2026-04-25 23:01 | 36.91087 | -73.13386 | 1472 ft | 122 kts | 158° |
| 2026-04-25 23:01 | 36.90641 | -73.12589 | 1269 ft | 157 kts | 70° |
| 2026-04-25 23:01 | 36.91228 | -73.11238 | 1519 ft | 213 kts | 63° |
| 2026-04-25 23:02 | 36.92317 | -73.09141 | 1326 ft | 353 kts | 60° |
| 2026-04-25 23:02 | 36.93716 | -73.06580 | 1726 ft | 329 kts | 59° |
| 2026-04-25 23:02 | 36.95054 | -73.04440 | 1790 ft | 304 kts | 51° |
| 2026-04-25 23:02 | 36.96549 | -73.02657 | 1549 ft | 301 kts | 44° |
| 2026-04-25 23:03 | 36.97968 | -73.00616 | 1141 ft | 314 kts | 64° |
| 2026-04-25 23:03 | 36.98743 | -72.98120 | 1361 ft | 302 kts | 82° |
| 2026-04-25 23:03 | 36.98942 | -72.95614 | 1791 ft | 269 kts | 60° |
| 2026-04-25 23:03 | 37.00452 | -72.95038 | 1838 ft | 236 kts | 321° |
| 2026-04-25 23:04 | 37.01397 | -72.96753 | 1419 ft | 240 kts | 294° |
| 2026-04-25 23:04 | 37.01962 | -72.98478 | 1331 ft | 186 kts | 291° |
| 2026-04-25 23:04 | 37.02365 | -72.99986 | 1081 ft | 183 kts | 283° |
| 2026-04-25 23:04 | 37.02407 | -73.01540 | 846 ft | 180 kts | 240° |
| 2026-04-25 23:05 | 37.01663 | -73.02549 | 944 ft | 142 kts | 199° |
| 2026-04-25 23:05 | 37.00751 | -73.02808 | 904 ft | 132 kts | 164° |
| 2026-04-25 23:05 | 36.99990 | -73.02286 | 643 ft | 127 kts | 114° |
| 2026-04-25 23:05 | 36.99840 | -73.01069 | 888 ft | 151 kts | 87° |
| 2026-04-25 23:06 | 36.99813 | -72.99630 | 995 ft | 156 kts | 102° |
| 2026-04-25 23:06 | 36.99588 | -72.98391 | 708 ft | 144 kts | 104° |
| 2026-04-25 23:06 | 36.99368 | -72.97168 | 466 ft | 144 kts | 104° |
| 2026-04-25 23:06 | 36.99143 | -72.95961 | 230 ft | 142 kts | 107° |
| 2026-04-25 23:07 | 36.98772 | -72.94831 | 110 ft | 140 kts | 121° |
| 2026-04-25 23:07 | 36.98308 | -72.93828 | 322 ft | 140 kts | 118° |
| 2026-04-25 23:07 | 36.97731 | -72.92579 | 642 ft | 192 kts | 118° |
| 2026-04-25 23:07 | 36.97818 | -72.91007 | 1356 ft | 195 kts | 37° |
| 2026-04-25 23:08 | 36.99127 | -72.90938 | 1514 ft | 212 kts | 326° |
| 2026-04-25 23:08 | 37.00002 | -72.92496 | 1223 ft | 223 kts | 294° |
| 2026-04-25 23:08 | 37.00546 | -72.94077 | 1115 ft | 175 kts | 294° |
| 2026-04-25 23:08 | 37.00714 | -72.95515 | 1080 ft | 160 kts | 246° |
| 2026-04-25 23:09 | 37.00015 | -72.96467 | 1203 ft | 149 kts | 182° |
| 2026-04-25 23:09 | 36.99016 | -72.96169 | 1352 ft | 152 kts | 133° |
| 2026-04-25 23:09 | 36.98541 | -72.94992 | 870 ft | 147 kts | 102° |
| 2026-04-25 23:09 | 36.98327 | -72.93757 | 585 ft | 138 kts | 102° |
| 2026-04-25 23:10 | 36.98119 | -72.92586 | 343 ft | 138 kts | 107° |
| 2026-04-25 23:10 | 36.97866 | -72.91442 | 142 ft | 136 kts | 106° |
| 2026-04-25 23:10 | 36.97709 | -72.90720 | 73 ft | 35 kts | 100° |
| 2026-04-25 23:10 | 36.97619 | -72.90398 | 73 ft | 41 kts | 107° |
| 2026-04-25 23:11 | 36.97531 | -72.90096 | 73 ft | 35 kts | 109° |
| 2026-04-25 23:11 | 36.97441 | -72.89789 | 73 ft | 38 kts | 114° |
| 2026-04-25 23:11 | 36.97350 | -72.89532 | 73 ft | 35 kts | 114° |
| 2026-04-25 23:11 | 36.97260 | -72.89255 | 73 ft | 35 kts | 114° |
| 2026-04-25 23:12 | 36.97177 | -72.88969 | 73 ft | 35 kts | 114° |
| 2026-04-25 23:12 | 36.97093 | -72.88683 | 73 ft | 35 kts | 114° |
| 2026-04-25 23:12 | 36.97010 | -72.88397 | 73 ft | 35 kts | 114° |
| 2026-04-25 23:12 | 36.96927 | -72.88111 | 73 ft | 35 kts | 114° |
| 2026-04-25 23:13 | 36.96844 | -72.87825 | 73 ft | 35 kts | 114° |
| 2026-04-25 23:13 | 36.96760 | -72.87539 | 73 ft | 35 kts | 114° |
| 2026-04-25 23:13 | 36.96677 | -72.87254 | 73 ft | 35 kts | 114° |
| 2026-04-25 23:13 | 36.96594 | -72.86953 | 73 ft | 35 kts | 76° |
| 2026-04-25 23:14 | 36.96511 | -72.86651 | 73 ft | 35 kts | 108° |
| 2026-04-25 23:14 | 36.96508 | -72.86637 | 73 ft | 35 kts | 108° |
| 2026-04-25 23:14 | 36.96474 | -72.86522 | 73 ft | 35 kts | 108° |
| 2026-04-25 23:14 | 36.96391 | -72.86236 | 73 ft | 35 kts | 108° |
| 2026-04-25 23:15 | 36.96081 | -72.85039 | 683 ft | 230 kts | 106° |
| 2026-04-25 23:15 | 36.96058 | -72.83135 | 2025 ft | 219 kts | 35° |
| 2026-04-25 23:15 | 36.97302 | -72.83398 | 2093 ft | 199 kts | 302° |
| 2026-04-25 23:15 | 36.97995 | -72.85121 | 1798 ft | 213 kts | 299° |
| 2026-04-25 23:16 | 36.98526 | -72.86587 | 1594 ft | 177 kts | 280° |
| 2026-04-25 23:16 | 36.98366 | -72.88015 | 1247 ft | 165 kts | 225° |
| 2026-04-25 23:16 | 36.97478 | -72.88577 | 1141 ft | 134 kts | 169° |
| 2026-04-25 23:16 | 36.96655 | -72.88069 | 1263 ft | 139 kts | 128° |
| 2026-04-25 23:17 | 36.96249 | -72.87017 | 789 ft | 134 kts | 100° |
| 2026-04-25 23:17 | 36.96042 | -72.85887 | 609 ft | 132 kts | 103° |
| 2026-04-25 23:17 | 36.95829 | -72.84765 | 422 ft | 132 kts | 105° |
| 2026-04-25 23:17 | 36.95569 | -72.83662 | 236 ft | 133 kts | 106° |
| 2026-04-25 23:18 | 36.95340 | -72.82593 | 73 ft | 48 kts | 102° |
| 2026-04-25 23:18 | 36.95254 | -72.82296 | 73 ft | 41 kts | 105° |
| 2026-04-25 23:18 | 36.95144 | -72.82017 | 73 ft | 35 kts | 106° |
| 2026-04-25 23:18 | 36.95061 | -72.81731 | 73 ft | 35 kts | 106° |
| 2026-04-25 23:19 | 36.94978 | -72.81446 | 73 ft | 35 kts | 106° |
| 2026-04-25 23:19 | 36.94895 | -72.81160 | 73 ft | 35 kts | 106° |
| 2026-04-25 23:19 | 36.94811 | -72.80874 | 73 ft | 35 kts | 106° |
| 2026-04-25 23:19 | 36.94728 | -72.80588 | 73 ft | 35 kts | 106° |
| 2026-04-25 23:20 | 36.94646 | -72.80306 | 73 ft | 35 kts | 106° |
| 2026-04-25 23:20 | 36.94562 | -72.80020 | 73 ft | 35 kts | 106° |
| 2026-04-25 23:20 | 36.94479 | -72.79734 | 73 ft | 35 kts | 106° |
| 2026-04-25 23:20 | 36.94396 | -72.79448 | 73 ft | 35 kts | 106° |
| 2026-04-25 23:21 | 36.94312 | -72.79162 | 73 ft | 35 kts | 106° |
| 2026-04-25 23:21 | 36.94229 | -72.78875 | 73 ft | 35 kts | 106° |
| 2026-04-25 23:21 | 36.94146 | -72.78589 | 73 ft | 35 kts | 106° |
| 2026-04-25 23:21 | 36.94062 | -72.78304 | 73 ft | 35 kts | 106° |
| 2026-04-25 23:22 | 36.93979 | -72.78018 | 73 ft | 35 kts | 106° |
| 2026-04-25 23:22 | 36.93896 | -72.77732 | 73 ft | 35 kts | 106° |
| 2026-04-25 23:22 | 36.93812 | -72.77446 | 73 ft | 35 kts | 106° |
| 2026-04-25 23:23 | 36.93646 | -72.76874 | 73 ft | 35 kts | 103° |
| 2026-04-25 23:23 | 36.93562 | -72.76588 | 73 ft | 35 kts | 103° |
| 2026-04-25 23:23 | 36.93480 | -72.76305 | 73 ft | 35 kts | 103° |
| 2026-04-25 23:23 | 36.93397 | -72.76020 | 73 ft | 35 kts | 103° |
| 2026-04-25 23:24 | 36.93314 | -72.75734 | 73 ft | 35 kts | 103° |
| 2026-04-25 23:24 | 36.93230 | -72.75447 | 73 ft | 35 kts | 103° |
| 2026-04-25 23:24 | 36.93147 | -72.75161 | 73 ft | 35 kts | 103° |
| 2026-04-25 23:24 | 36.93063 | -72.74875 | 73 ft | 35 kts | 103° |
| 2026-04-25 23:25 | 36.92980 | -72.74589 | 73 ft | 35 kts | 103° |
| 2026-04-25 23:25 | 36.92896 | -72.74303 | 73 ft | 35 kts | 103° |
| 2026-04-25 23:25 | 36.92813 | -72.74017 | 73 ft | 35 kts | 103° |
| 2026-04-25 23:25 | 36.92739 | -72.73722 | 73 ft | 30 kts | 331° |
| 2026-04-25 23:26 | 36.92675 | -72.73512 | 73 ft | 27 kts | 279° |
| 2026-04-25 23:26 | 36.92607 | -72.73233 | 73 ft | 36 kts | 77° |
| 2026-04-25 23:26 | 36.92523 | -72.72920 | 73 ft | 37 kts | 104° |
| 2026-04-25 23:26 | 36.92439 | -72.72634 | 73 ft | 35 kts | 104° |
| 2026-04-25 23:27 | 36.92354 | -72.72336 | 73 ft | 35 kts | 105° |
| 2026-04-25 23:27 | 36.92118 | -72.71232 | 749 ft | 211 kts | 103° |
| 2026-04-25 23:27 | 36.91836 | -72.69375 | 2212 ft | 218 kts | 82° |
| 2026-04-25 23:27 | 36.92965 | -72.68464 | 3388 ft | 241 kts | 345° |
| 2026-04-25 23:28 | 36.94091 | -72.70088 | 3691 ft | 272 kts | 286° |
| 2026-04-25 23:28 | 36.94635 | -72.72327 | 2847 ft | 261 kts | 286° |
| 2026-04-25 23:28 | 36.95040 | -72.74404 | 2268 ft | 227 kts | 275° |
| 2026-04-25 23:28 | 36.94880 | -72.76028 | 1844 ft | 164 kts | 215° |
| 2026-04-25 23:29 | 36.93963 | -72.76180 | 1450 ft | 129 kts | 146° |
| 2026-04-25 23:29 | 36.93224 | -72.75532 | 1691 ft | 124 kts | 130° |
| 2026-04-25 23:29 | 36.92606 | -72.74697 | 1626 ft | 136 kts | 127° |
| 2026-04-25 23:29 | 36.92224 | -72.73635 | 1245 ft | 135 kts | 104° |
| 2026-04-25 23:30 | 36.92023 | -72.72502 | 989 ft | 133 kts | 103° |
| 2026-04-25 23:30 | 36.91808 | -72.71380 | 728 ft | 133 kts | 108° |
| 2026-04-25 23:30 | 36.91567 | -72.70277 | 496 ft | 132 kts | 107° |
| 2026-04-25 23:30 | 36.91314 | -72.69182 | 303 ft | 131 kts | 107° |
| 2026-04-25 23:31 | 36.91068 | -72.68083 | 120 ft | 131 kts | 104° |
| 2026-04-25 23:31 | 36.90926 | -72.67453 | 73 ft | 35 kts | 101° |
| 2026-04-25 23:31 | 36.90819 | -72.67172 | 73 ft | 35 kts | 101° |
| 2026-04-25 23:31 | 36.90730 | -72.66851 | 73 ft | 35 kts | 103° |
| 2026-04-25 23:32 | 36.90647 | -72.66565 | 73 ft | 35 kts | 103° |
| 2026-04-25 23:32 | 36.90564 | -72.66280 | 73 ft | 35 kts | 103° |
| 2026-04-25 23:32 | 36.90480 | -72.65994 | 73 ft | 35 kts | 103° |
| 2026-04-25 23:32 | 36.90397 | -72.65708 | 73 ft | 35 kts | 103° |
| 2026-04-25 23:33 | 36.90314 | -72.65422 | 73 ft | 35 kts | 103° |
| 2026-04-25 23:33 | 36.90231 | -72.65140 | 73 ft | 35 kts | 103° |
| 2026-04-25 23:33 | 36.90148 | -72.64855 | 73 ft | 35 kts | 103° |
| 2026-04-25 23:33 | 36.90065 | -72.64568 | 73 ft | 35 kts | 103° |
| 2026-04-25 23:34 | 36.89981 | -72.64283 | 73 ft | 35 kts | 103° |
| 2026-04-25 23:34 | 36.89898 | -72.63997 | 73 ft | 35 kts | 103° |
| 2026-04-25 23:34 | 36.89815 | -72.63711 | 73 ft | 35 kts | 103° |
| 2026-04-25 23:34 | 36.89731 | -72.63424 | 73 ft | 35 kts | 103° |
| 2026-04-25 23:35 | 36.89647 | -72.63137 | 73 ft | 35 kts | 103° |
| 2026-04-25 23:35 | 36.89564 | -72.62852 | 73 ft | 35 kts | 103° |
| 2026-04-25 23:35 | 36.89482 | -72.62570 | 73 ft | 35 kts | 103° |
| 2026-04-25 23:35 | 36.89401 | -72.62253 | 73 ft | 36 kts | 109° |
| 2026-04-25 23:36 | 36.89315 | -72.61959 | 73 ft | 35 kts | 109° |
| 2026-04-25 23:36 | 36.89257 | -72.61761 | 73 ft | 35 kts | 108° |
| 2026-04-25 23:36 | 36.89147 | -72.61383 | 73 ft | 35 kts | 108° |
| 2026-04-25 23:36 | 36.88771 | -72.59932 | 693 ft | 253 kts | 108° |
| 2026-04-25 23:37 | 36.88328 | -72.57690 | 1728 ft | 278 kts | 77° |
| 2026-04-25 23:37 | 36.89820 | -72.57050 | 1998 ft | 286 kts | 314° |
| 2026-04-25 23:37 | 36.90585 | -72.59575 | 1798 ft | 310 kts | 284° |
| 2026-04-25 23:37 | 36.91108 | -72.61785 | 1615 ft | 230 kts | 284° |
| 2026-04-25 23:38 | 36.91233 | -72.63548 | 1429 ft | 180 kts | 241° |
| 2026-04-25 23:38 | 36.90334 | -72.64173 | 1161 ft | 154 kts | 165° |
| 2026-04-25 23:38 | 36.89439 | -72.63480 | 1154 ft | 161 kts | 124° |
| 2026-04-25 23:38 | 36.89011 | -72.62229 | 786 ft | 140 kts | 99° |
| 2026-04-25 23:39 | 36.88848 | -72.61237 | 401 ft | 100 kts | 104° |
| 2026-04-25 23:39 | 36.88627 | -72.60162 | 321 ft | 140 kts | 107° |
| 2026-04-25 23:39 | 36.88361 | -72.59072 | 233 ft | 130 kts | 105° |
| 2026-04-25 23:39 | 36.88134 | -72.57984 | 95 ft | 129 kts | 105° |
| 2026-04-25 23:40 | 36.88012 | -72.57443 | 73 ft | 35 kts | 100° |
| 2026-04-25 23:40 | 36.87899 | -72.57156 | 73 ft | 41 kts | 101° |
| 2026-04-25 23:40 | 36.87815 | -72.56867 | 73 ft | 35 kts | 105° |
| 2026-04-25 23:40 | 36.87738 | -72.56602 | 73 ft | 35 kts | 105° |
| 2026-04-25 23:41 | 36.87655 | -72.56318 | 73 ft | 35 kts | 105° |
| 2026-04-25 23:41 | 36.87572 | -72.56032 | 73 ft | 35 kts | 105° |
| 2026-04-25 23:41 | 36.87489 | -72.55746 | 73 ft | 35 kts | 105° |
| 2026-04-25 23:41 | 36.87405 | -72.55461 | 73 ft | 35 kts | 105° |
| 2026-04-25 23:42 | 36.87322 | -72.55175 | 73 ft | 35 kts | 105° |
| 2026-04-25 23:42 | 36.87239 | -72.54890 | 73 ft | 35 kts | 105° |
| 2026-04-25 23:42 | 36.87155 | -72.54604 | 73 ft | 35 kts | 105° |
| 2026-04-25 23:42 | 36.87072 | -72.54319 | 73 ft | 35 kts | 105° |
| 2026-04-25 23:43 | 36.86989 | -72.54033 | 73 ft | 35 kts | 105° |
| 2026-04-25 23:43 | 36.86906 | -72.53748 | 73 ft | 35 kts | 105° |
| 2026-04-25 23:43 | 36.86822 | -72.53462 | 73 ft | 35 kts | 105° |
| 2026-04-25 23:43 | 36.86739 | -72.53176 | 73 ft | 35 kts | 105° |
| 2026-04-25 23:44 | 36.86656 | -72.52891 | 73 ft | 35 kts | 105° |
| 2026-04-25 23:44 | 36.86572 | -72.52605 | 73 ft | 35 kts | 105° |
| 2026-04-25 23:44 | 36.86489 | -72.52320 | 73 ft | 35 kts | 105° |
| 2026-04-25 23:44 | 36.86406 | -72.52035 | 73 ft | 35 kts | 105° |
| 2026-04-25 23:45 | 36.86323 | -72.51749 | 73 ft | 35 kts | 105° |
| 2026-04-25 23:45 | 36.86239 | -72.51464 | 73 ft | 35 kts | 105° |
| 2026-04-25 23:45 | 36.86156 | -72.51178 | 73 ft | 35 kts | 105° |
| 2026-04-25 23:45 | 36.86073 | -72.50892 | 73 ft | 35 kts | 105° |
| 2026-04-25 23:46 | 36.85989 | -72.50606 | 73 ft | 35 kts | 105° |
| 2026-04-25 23:46 | 36.85907 | -72.50324 | 73 ft | 35 kts | 105° |
| 2026-04-25 23:46 | 36.85824 | -72.50039 | 73 ft | 35 kts | 105° |
| 2026-04-25 23:46 | 36.85740 | -72.49753 | 73 ft | 35 kts | 105° |
| 2026-04-25 23:47 | 36.85660 | -72.49430 | 73 ft | 40 kts | 99° |
| 2026-04-25 23:47 | 36.85573 | -72.49129 | 73 ft | 35 kts | 108° |
| 2026-04-25 23:47 | 36.85518 | -72.48940 | 73 ft | 35 kts | 108° |
| 2026-04-25 23:47 | 36.85418 | -72.48591 | 73 ft | 160 kts | 108° |
| 2026-04-25 23:48 | 36.84882 | -72.46084 | 1900 ft | 214 kts | 75° |
| 2026-04-25 23:48 | 36.86331 | -72.45462 | 3074 ft | 311 kts | 337° |
| 2026-04-25 23:48 | 36.87563 | -72.46618 | 3854 ft | 330 kts | 289° |
| 2026-04-25 23:48 | 36.87900 | -72.49387 | 5078 ft | 345 kts | 280° |
| 2026-04-25 23:49 | 36.88540 | -72.52520 | 5479 ft | 393 kts | 285° |
| 2026-04-25 23:49 | 36.89273 | -72.55878 | 6222 ft | 401 kts | 281° |
| 2026-04-25 23:49 | 36.89786 | -72.59285 | 7323 ft | 399 kts | 279° |
| 2026-04-25 23:49 | 36.90268 | -72.62678 | 8450 ft | 393 kts | 277° |
| 2026-04-25 23:50 | 36.90759 | -72.66016 | 9598 ft | 387 kts | 281° |
| 2026-04-25 23:50 | 36.91304 | -72.69279 | 10772 ft | 378 kts | 279° |
| 2026-04-25 23:50 | 36.92402 | -72.72268 | 10860 ft | 400 kts | 308° |
| 2026-04-25 23:50 | 36.94223 | -72.75091 | 10079 ft | 428 kts | 306° |
| 2026-04-25 23:51 | 36.96005 | -72.78130 | 9009 ft | 438 kts | 303° |
| 2026-04-25 23:51 | 36.97745 | -72.81225 | 8127 ft | 442 kts | 303° |
| 2026-04-25 23:51 | 36.99369 | -72.84492 | 7231 ft | 443 kts | 297° |
| 2026-04-25 23:51 | 37.00617 | -72.88036 | 6110 ft | 448 kts | 289° |
| 2026-04-25 23:52 | 37.02267 | -72.91295 | 5464 ft | 436 kts | 304° |
| 2026-04-25 23:52 | 37.04002 | -72.94268 | 4870 ft | 419 kts | 305° |
| 2026-04-25 23:52 | 37.05806 | -72.97398 | 4317 ft | 469 kts | 305° |
| 2026-04-25 23:52 | 37.07802 | -73.00891 | 3790 ft | 516 kts | 304° |
| 2026-04-25 23:53 | 37.09919 | -73.04733 | 3332 ft | 551 kts | 304° |
| 2026-04-25 23:53 | 37.12077 | -73.08800 | 2979 ft | 567 kts | 303° |
| 2026-04-25 23:53 | 37.14254 | -73.12911 | 2649 ft | 558 kts | 303° |
| 2026-04-25 23:53 | 37.16312 | -73.16927 | 2371 ft | 537 kts | 301° |
| 2026-04-25 23:54 | 37.18140 | -73.20952 | 2057 ft | 525 kts | 300° |
| 2026-04-25 23:54 | 37.19983 | -73.24814 | 1662 ft | 503 kts | 302° |
| 2026-04-25 23:54 | 37.21796 | -73.28345 | 1289 ft | 461 kts | 303° |
| 2026-04-25 23:54 | 37.23455 | -73.31666 | 930 ft | 441 kts | 302° |
| 2026-04-25 23:55 | 37.25031 | -73.34845 | 608 ft | 428 kts | 302° |
| 2026-04-25 23:55 | 37.26540 | -73.37983 | 513 ft | 412 kts | 300° |
| 2026-04-25 23:55 | 37.27892 | -73.41091 | 464 ft | 398 kts | 300° |
| 2026-04-25 23:55 | 37.29135 | -73.44127 | 373 ft | 385 kts | 289° |
| 2026-04-25 23:56 | 37.29498 | -73.47385 | 376 ft | 372 kts | 264° |
| 2026-04-25 23:56 | 37.29037 | -73.50527 | 410 ft | 363 kts | 255° |
| 2026-04-25 23:56 | 37.28489 | -73.53611 | 363 ft | 359 kts | 256° |
| 2026-04-25 23:56 | 37.27949 | -73.56653 | 374 ft | 355 kts | 255° |
| 2026-04-25 23:57 | 37.27419 | -73.59633 | 674 ft | 341 kts | 255° |
| 2026-04-25 23:57 | 37.26916 | -73.62465 | 1147 ft | 325 kts | 255° |
| 2026-04-25 23:57 | 37.26433 | -73.65179 | 1613 ft | 312 kts | 255° |
| 2026-04-25 23:57 | 37.25965 | -73.67786 | 2062 ft | 300 kts | 254° |
| 2026-04-25 23:58 | 37.25511 | -73.70306 | 2495 ft | 290 kts | 253° |
| 2026-04-25 23:58 | 37.25057 | -73.72805 | 2935 ft | 327 kts | 253° |
| 2026-04-25 23:58 | 37.24494 | -73.75870 | 3468 ft | 375 kts | 254° |
| 2026-04-25 23:58 | 37.23933 | -73.79009 | 4017 ft | 367 kts | 255° |
| 2026-04-25 23:59 | 37.23373 | -73.82143 | 4585 ft | 368 kts | 255° |
| 2026-04-25 23:59 | 37.22816 | -73.85266 | 5149 ft | 365 kts | 255° |
| 2026-04-25 23:59 | 37.22265 | -73.88364 | 5721 ft | 363 kts | 256° |
| 2026-04-25 23:59 | 37.21723 | -73.91409 | 6293 ft | 361 kts | 256° |
| 2026-04-26 00:00 | 37.21171 | -73.94504 | 6878 ft | 365 kts | 256° |
| 2026-04-26 00:00 | 37.20613 | -73.97630 | 7469 ft | 368 kts | 256° |
| 2026-04-26 00:00 | 37.20050 | -74.00777 | 8066 ft | 372 kts | 256° |
| 2026-04-26 00:00 | 37.19479 | -74.03964 | 8670 ft | 376 kts | 257° |
| 2026-04-26 00:01 | 37.18902 | -74.07177 | 9279 ft | 379 kts | 257° |
| 2026-04-26 00:01 | 37.18322 | -74.10400 | 9892 ft | 379 kts | 257° |
| 2026-04-26 00:01 | 37.17740 | -74.13632 | 10509 ft | 381 kts | 257° |
| 2026-04-26 00:01 | 37.17156 | -74.16867 | 11128 ft | 381 kts | 257° |
| 2026-04-26 00:02 | 37.17114 | -74.17101 | 11173 ft | 381 kts | 257° |
| 2026-04-26 00:02 | 37.16995 | -74.17755 | 11290 ft | 381 kts | 257° |
| 2026-04-26 00:02 | 37.16406 | -74.21013 | 11369 ft | 383 kts | 257° |
| 2026-04-26 00:02 | 37.15814 | -74.24275 | 11394 ft | 383 kts | 257° |
| 2026-04-26 00:03 | 37.15222 | -74.27538 | 11416 ft | 383 kts | 257° |
| 2026-04-26 00:03 | 37.14631 | -74.30792 | 11394 ft | 383 kts | 257° |
| 2026-04-26 00:03 | 37.14037 | -74.34052 | 11399 ft | 383 kts | 257° |
| 2026-04-26 00:03 | 37.13451 | -74.37266 | 11402 ft | 383 kts | 257° |
| 2026-04-26 00:04 | 37.12855 | -74.40537 | 11399 ft | 384 kts | 257° |
| 2026-04-26 00:04 | 37.12258 | -74.43803 | 11400 ft | 384 kts | 257° |
| 2026-04-26 00:04 | 37.11661 | -74.47067 | 11400 ft | 384 kts | 257° |
| 2026-04-26 00:04 | 37.11063 | -74.50333 | 11400 ft | 384 kts | 257° |
| 2026-04-26 00:05 | 37.10464 | -74.53600 | 11400 ft | 384 kts | 257° |
| 2026-04-26 00:05 | 37.09873 | -74.56824 | 11400 ft | 384 kts | 257° |
| 2026-04-26 00:05 | 37.09275 | -74.60081 | 11400 ft | 384 kts | 257° |
| 2026-04-26 00:05 | 37.08674 | -74.63343 | 11400 ft | 385 kts | 257° |
| 2026-04-26 00:06 | 37.08072 | -74.66614 | 11399 ft | 385 kts | 257° |
| 2026-04-26 00:06 | 37.07471 | -74.69879 | 11401 ft | 385 kts | 257° |
| 2026-04-26 00:06 | 37.06866 | -74.73152 | 11400 ft | 385 kts | 257° |
| 2026-04-26 00:06 | 37.06263 | -74.76419 | 11400 ft | 385 kts | 257° |
| 2026-04-26 00:07 | 37.05658 | -74.79686 | 11400 ft | 385 kts | 257° |
| 2026-04-26 00:07 | 37.05052 | -74.82959 | 11400 ft | 385 kts | 257° |
| 2026-04-26 00:07 | 37.04447 | -74.86222 | 11400 ft | 385 kts | 257° |
| 2026-04-26 00:07 | 37.03840 | -74.89497 | 11400 ft | 386 kts | 257° |
| 2026-04-26 00:08 | 37.03230 | -74.92777 | 11400 ft | 386 kts | 257° |
| 2026-04-26 00:08 | 37.02621 | -74.96051 | 11400 ft | 386 kts | 257° |
| 2026-04-26 00:08 | 37.02012 | -74.99325 | 11400 ft | 386 kts | 257° |
| 2026-04-26 00:08 | 37.01402 | -75.02601 | 11400 ft | 386 kts | 257° |
| 2026-04-26 00:09 | 37.00792 | -75.05872 | 11400 ft | 386 kts | 257° |
| 2026-04-26 00:09 | 37.00179 | -75.09154 | 11400 ft | 386 kts | 257° |
| 2026-04-26 00:09 | 36.99575 | -75.12387 | 11400 ft | 386 kts | 257° |
| 2026-04-26 00:09 | 36.98964 | -75.15657 | 11400 ft | 386 kts | 257° |
| 2026-04-26 00:10 | 36.98349 | -75.18942 | 11400 ft | 386 kts | 257° |
| 2026-04-26 00:10 | 36.97735 | -75.22218 | 11400 ft | 386 kts | 257° |
| 2026-04-26 00:10 | 36.97122 | -75.25494 | 11400 ft | 386 kts | 257° |
| 2026-04-26 00:10 | 36.96509 | -75.28765 | 11401 ft | 386 kts | 257° |
| 2026-04-26 00:11 | 36.95894 | -75.32038 | 11399 ft | 386 kts | 257° |
| 2026-04-26 00:11 | 36.95279 | -75.35309 | 11400 ft | 386 kts | 257° |
| 2026-04-26 00:11 | 36.94664 | -75.38585 | 11400 ft | 387 kts | 257° |
| 2026-04-26 00:11 | 36.94053 | -75.41830 | 11400 ft | 388 kts | 257° |
| 2026-04-26 00:12 | 36.93434 | -75.45118 | 11400 ft | 388 kts | 257° |
| 2026-04-26 00:12 | 36.92817 | -75.48395 | 11400 ft | 387 kts | 257° |
| 2026-04-26 00:12 | 36.92197 | -75.51683 | 11400 ft | 388 kts | 257° |
| 2026-04-26 00:12 | 36.91581 | -75.54953 | 11384 ft | 388 kts | 257° |
| 2026-04-26 00:13 | 36.91168 | -75.58281 | 11039 ft | 387 kts | 264° |
| 2026-04-26 00:13 | 36.91045 | -75.61594 | 10640 ft | 386 kts | 272° |
| 2026-04-26 00:13 | 36.91385 | -75.64917 | 10128 ft | 385 kts | 277° |
| 2026-04-26 00:13 | 36.91709 | -75.68226 | 9647 ft | 383 kts | 272° |
| 2026-04-26 00:14 | 36.91759 | -75.70467 | 9252 ft | 382 kts | 270° |
| 2026-04-26 00:14 | 36.91939 | -75.73996 | 8650 ft | 297 kts | 272° |
| 2026-04-26 00:14 | 36.92060 | -75.76280 | 8063 ft | 235 kts | 270° |
| 2026-04-26 00:14 | 36.92151 | -75.78392 | 7530 ft | 254 kts | 269° |
| 2026-04-26 00:15 | 36.92114 | -75.80574 | 7276 ft | 252 kts | 264° |
| 2026-04-26 00:15 | 36.91993 | -75.82804 | 6614 ft | 264 kts | 264° |
| 2026-04-26 00:15 | 36.91879 | -75.85102 | 6142 ft | 267 kts | 262° |
| 2026-04-26 00:15 | 36.91662 | -75.87420 | 5499 ft | 266 kts | 259° |
| 2026-04-26 00:16 | 36.91319 | -75.89605 | 4835 ft | 249 kts | 252° |
| 2026-04-26 00:16 | 36.90993 | -75.91003 | 4225 ft | 247 kts | 248° |
| 2026-04-26 00:16 | 36.90409 | -75.92806 | 3647 ft | 221 kts | 239° |
| 2026-04-26 00:16 | 36.89745 | -75.94309 | 3108 ft | 175 kts | 230° |
| 2026-04-26 00:17 | 36.89074 | -75.95386 | 2547 ft | 144 kts | 222° |
| 2026-04-26 00:17 | 36.88398 | -75.96287 | 2157 ft | 142 kts | 217° |
| 2026-04-26 00:17 | 36.87661 | -75.97114 | 1828 ft | 142 kts | 216° |
| 2026-04-26 00:17 | 36.86908 | -75.97925 | 1536 ft | 143 kts | 216° |
| 2026-04-26 00:18 | 36.86136 | -75.98732 | 1273 ft | 147 kts | 219° |
| 2026-04-26 00:18 | 36.85369 | -75.99576 | 987 ft | 148 kts | 219° |
| 2026-04-26 00:18 | 36.84593 | -76.00425 | 703 ft | 149 kts | 221° |
| 2026-04-26 00:18 | 36.83820 | -76.01288 | 417 ft | 149 kts | 220° |
| 2026-04-26 00:19 | 36.83051 | -76.02175 | 133 ft | 154 kts | 222° |
| 2026-04-26 00:19 | 36.82322 | -76.03001 | 30 ft | 104 kts | 221° |
| 2026-04-26 00:19 | 36.82104 | -76.03242 | 30 ft | 0 kts | 220° |
| 2026-04-26 00:19 | 36.82089 | -76.03259 | 30 ft | 5 kts | 221° |
| 2026-04-26 00:20 | 36.82046 | -76.03306 | 30 ft | 11 kts | 221° |
| 2026-04-26 00:20 | 36.81976 | -76.03384 | 30 ft | 15 kts | 221° |
| 2026-04-26 00:20 | 36.81886 | -76.03484 | 30 ft | 15 kts | 222° |
| 2026-04-26 00:20 | 36.81813 | -76.03566 | 30 ft | 12 kts | 222° |
| 2026-04-26 00:21 | 36.81795 | -76.03587 | 30 ft | 0 kts | 222° |
| 2026-04-26 00:21 | 36.81765 | -76.03621 | 30 ft | 6 kts | 222° |
| 2026-04-26 00:21 | 36.81738 | -76.03621 | 30 ft | 14 kts | 142° |
| 2026-04-26 00:22 | 36.81650 | -76.03511 | 30 ft | 14 kts | 134° |
| 2026-04-26 00:22 | 36.81593 | -76.03438 | 30 ft | 9 kts | 134° |
| 2026-04-26 00:22 | 36.81561 | -76.03398 | 30 ft | 0 kts | 134° |